sensor_id;sensor_type;location;lat;lon;timestamp;temperature;humidity
52439;DHT22;38359;53.150;6.504;2023-05-29T00:08:12;11.50;99.90
52439;DHT22;38359;53.150;6.504;2023-05-29T00:18:38;11.40;99.90
52439;DHT22;38359;53.150;6.504;2023-05-29T00:29:10;11.20;99.90
52439;DHT22;38359;53.150;6.504;2023-05-29T00:39:36;11.10;99.90
52439;DHT22;38359;53.150;6.504;2023-05-29T00:50:02;11.00;99.90
52439;DHT22;38359;53.150;6.504;2023-05-29T01:00:29;11.00;99.90
52439;DHT22;38359;53.150;6.504;2023-05-29T01:11:03;10.80;99.90
52439;DHT22;38359;53.150;6.504;2023-05-29T01:22:04;10.80;99.90
52439;DHT22;38359;53.150;6.504;2023-05-29T01:32:34;10.70;99.90
52439;DHT22;38359;53.150;6.504;2023-05-29T01:43:02;10.70;99.90
52439;DHT22;38359;53.150;6.504;2023-05-29T01:53:27;10.70;99.90
52439;DHT22;38359;53.150;6.504;2023-05-29T02:03:53;10.60;99.90
52439;DHT22;38359;53.150;6.504;2023-05-29T02:14:19;10.80;99.90
52439;DHT22;38359;53.150;6.504;2023-05-29T02:24:45;10.70;99.90
52439;DHT22;38359;53.150;6.504;2023-05-29T02:35:10;10.70;99.90
52439;DHT22;38359;53.150;6.504;2023-05-29T02:45:38;10.60;99.90
52439;DHT22;38359;53.150;6.504;2023-05-29T02:56:06;10.50;99.90
52439;DHT22;38359;53.150;6.504;2023-05-29T03:06:34;10.60;99.90
52439;DHT22;38359;53.150;6.504;2023-05-29T03:17:00;10.60;99.90
52439;DHT22;38359;53.150;6.504;2023-05-29T03:27:25;10.90;99.90
52439;DHT22;38359;53.150;6.504;2023-05-29T03:37:51;10.80;99.90
52439;DHT22;38359;53.150;6.504;2023-05-29T03:48:18;10.80;99.90
52439;DHT22;38359;53.150;6.504;2023-05-29T03:58:44;10.90;99.90
52439;DHT22;38359;53.150;6.504;2023-05-29T04:09:09;11.00;99.90
52439;DHT22;38359;53.150;6.504;2023-05-29T04:19:35;10.90;99.90
52439;DHT22;38359;53.150;6.504;2023-05-29T04:30:01;10.80;99.90
52439;DHT22;38359;53.150;6.504;2023-05-29T04:40:27;10.80;99.90
52439;DHT22;38359;53.150;6.504;2023-05-29T04:50:53;11.00;99.90
52439;DHT22;38359;53.150;6.504;2023-05-29T05:01:19;11.10;99.90
52439;DHT22;38359;53.150;6.504;2023-05-29T05:11:45;11.30;99.90
52439;DHT22;38359;53.150;6.504;2023-05-29T05:22:11;11.50;99.90
52439;DHT22;38359;53.150;6.504;2023-05-29T05:32:36;11.80;99.90
52439;DHT22;38359;53.150;6.504;2023-05-29T05:43:02;11.90;99.90
52439;DHT22;38359;53.150;6.504;2023-05-29T05:53:28;11.90;99.90
52439;DHT22;38359;53.150;6.504;2023-05-29T06:03:54;12.30;99.90
52439;DHT22;38359;53.150;6.504;2023-05-29T06:14:19;12.30;99.90
52439;DHT22;38359;53.150;6.504;2023-05-29T06:24:45;12.30;99.90
52439;DHT22;38359;53.150;6.504;2023-05-29T06:35:11;12.50;99.90
52439;DHT22;38359;53.150;6.504;2023-05-29T06:45:37;12.50;99.90
52439;DHT22;38359;53.150;6.504;2023-05-29T06:56:04;12.50;99.90
52439;DHT22;38359;53.150;6.504;2023-05-29T07:06:30;12.70;99.90
52439;DHT22;38359;53.150;6.504;2023-05-29T07:16:57;13.10;99.90
52439;DHT22;38359;53.150;6.504;2023-05-29T07:27:23;12.80;99.90
52439;DHT22;38359;53.150;6.504;2023-05-29T07:37:48;13.30;99.90
52439;DHT22;38359;53.150;6.504;2023-05-29T07:48:16;13.80;99.90
52439;DHT22;38359;53.150;6.504;2023-05-29T07:58:42;14.10;99.90
52439;DHT22;38359;53.150;6.504;2023-05-29T08:09:08;14.10;99.90
52439;DHT22;38359;53.150;6.504;2023-05-29T08:19:35;14.30;99.90
52439;DHT22;38359;53.150;6.504;2023-05-29T08:30:01;14.60;99.90
52439;DHT22;38359;53.150;6.504;2023-05-29T08:40:27;14.80;99.90
52439;DHT22;38359;53.150;6.504;2023-05-29T08:50:55;15.20;99.90
52439;DHT22;38359;53.150;6.504;2023-05-29T09:01:22;14.70;99.90
52439;DHT22;38359;53.150;6.504;2023-05-29T09:11:49;15.20;99.90
52439;DHT22;38359;53.150;6.504;2023-05-29T09:22:15;15.40;99.90
52439;DHT22;38359;53.150;6.504;2023-05-29T09:32:41;15.20;99.90
52439;DHT22;38359;53.150;6.504;2023-05-29T09:43:16;15.50;99.90
52439;DHT22;38359;53.150;6.504;2023-05-29T09:53:42;15.90;99.90
52439;DHT22;38359;53.150;6.504;2023-05-29T10:04:09;16.00;99.90
52439;DHT22;38359;53.150;6.504;2023-05-29T10:14:35;16.00;99.90
52439;DHT22;38359;53.150;6.504;2023-05-29T10:25:02;16.60;99.90
52439;DHT22;38359;53.150;6.504;2023-05-29T10:35:59;15.90;99.90
52439;DHT22;38359;53.150;6.504;2023-05-29T10:57:08;16.40;99.90
52439;DHT22;38359;53.150;6.504;2023-05-29T11:07:55;16.20;99.90
52439;DHT22;38359;53.150;6.504;2023-05-29T11:18:30;16.60;99.90
52439;DHT22;38359;53.150;6.504;2023-05-29T11:29:00;16.70;99.90
52439;DHT22;38359;53.150;6.504;2023-05-29T11:39:29;16.90;99.90
52439;DHT22;38359;53.150;6.504;2023-05-29T11:49:56;17.30;99.90
52439;DHT22;38359;53.150;6.504;2023-05-29T12:00:22;17.50;99.90
52439;DHT22;38359;53.150;6.504;2023-05-29T12:10:49;18.30;99.90
52439;DHT22;38359;53.150;6.504;2023-05-29T12:21:15;18.40;99.90
52439;DHT22;38359;53.150;6.504;2023-05-29T12:31:41;17.60;99.40
52439;DHT22;38359;53.150;6.504;2023-05-29T12:42:07;17.40;98.30
52439;DHT22;38359;53.150;6.504;2023-05-29T12:52:33;18.20;94.10
52439;DHT22;38359;53.150;6.504;2023-05-29T13:02:58;19.00;81.30
52439;DHT22;38359;53.150;6.504;2023-05-29T13:13:24;19.00;69.70
52439;DHT22;38359;53.150;6.504;2023-05-29T13:23:50;19.70;65.70
52439;DHT22;38359;53.150;6.504;2023-05-29T13:34:16;20.60;59.70
52439;DHT22;38359;53.150;6.504;2023-05-29T13:44:42;20.60;57.30
52439;DHT22;38359;53.150;6.504;2023-05-29T13:55:07;20.70;51.50
52439;DHT22;38359;53.150;6.504;2023-05-29T14:05:34;21.60;45.30
52439;DHT22;38359;53.150;6.504;2023-05-29T14:16:00;20.40;38.60
52439;DHT22;38359;53.150;6.504;2023-05-29T14:26:25;21.80;42.20
52439;DHT22;38359;53.150;6.504;2023-05-29T14:36:51;21.10;36.10
52439;DHT22;38359;53.150;6.504;2023-05-29T14:47:17;22.90;35.60
52439;DHT22;38359;53.150;6.504;2023-05-29T14:57:44;23.00;31.50
52439;DHT22;38359;53.150;6.504;2023-05-29T15:08:09;21.90;27.50
52439;DHT22;38359;53.150;6.504;2023-05-29T15:18:35;23.50;27.90
52439;DHT22;38359;53.150;6.504;2023-05-29T15:29:01;23.00;27.40
52439;DHT22;38359;53.150;6.504;2023-05-29T15:39:27;23.70;25.50
52439;DHT22;38359;53.150;6.504;2023-05-29T15:49:53;23.20;26.80
52439;DHT22;38359;53.150;6.504;2023-05-29T16:00:22;24.00;26.70
52439;DHT22;38359;53.150;6.504;2023-05-29T16:10:47;23.60;27.30
52439;DHT22;38359;53.150;6.504;2023-05-29T16:21:13;22.90;26.50
52439;DHT22;38359;53.150;6.504;2023-05-29T16:31:39;23.20;27.50
52439;DHT22;38359;53.150;6.504;2023-05-29T16:42:06;23.00;29.70
52439;DHT22;38359;53.150;6.504;2023-05-29T16:52:32;22.80;30.10
52439;DHT22;38359;53.150;6.504;2023-05-29T17:02:57;22.90;28.60
52439;DHT22;38359;53.150;6.504;2023-05-29T17:13:24;23.00;29.10
52439;DHT22;38359;53.150;6.504;2023-05-29T17:23:50;23.00;28.20
52439;DHT22;38359;53.150;6.504;2023-05-29T17:34:20;22.40;28.60
52439;DHT22;38359;53.150;6.504;2023-05-29T17:44:45;22.00;31.80
52439;DHT22;38359;53.150;6.504;2023-05-29T17:55:11;20.70;31.40
52439;DHT22;38359;53.150;6.504;2023-05-29T18:05:37;22.00;35.00
52439;DHT22;38359;53.150;6.504;2023-05-29T18:16:03;20.90;34.20
52439;DHT22;38359;53.150;6.504;2023-05-29T18:26:34;19.70;45.00
52439;DHT22;38359;53.150;6.504;2023-05-29T18:36:59;18.70;54.20
52439;DHT22;38359;53.150;6.504;2023-05-29T18:47:25;17.10;68.50
52439;DHT22;38359;53.150;6.504;2023-05-29T18:57:52;16.40;82.10
52439;DHT22;38359;53.150;6.504;2023-05-29T19:08:18;16.20;87.50
52439;DHT22;38359;53.150;6.504;2023-05-29T19:18:44;15.50;93.80
52439;DHT22;38359;53.150;6.504;2023-05-29T19:29:10;15.60;93.00
52439;DHT22;38359;53.150;6.504;2023-05-29T19:39:36;14.80;99.90
52439;DHT22;38359;53.150;6.504;2023-05-29T19:50:02;14.70;99.90
52439;DHT22;38359;53.150;6.504;2023-05-29T20:00:32;14.50;99.90
52439;DHT22;38359;53.150;6.504;2023-05-29T20:10:58;14.30;99.90
52439;DHT22;38359;53.150;6.504;2023-05-29T20:21:24;14.50;99.90
52439;DHT22;38359;53.150;6.504;2023-05-29T20:31:51;14.00;99.90
52439;DHT22;38359;53.150;6.504;2023-05-29T20:42:17;14.20;99.90
52439;DHT22;38359;53.150;6.504;2023-05-29T20:52:46;14.00;99.90
52439;DHT22;38359;53.150;6.504;2023-05-29T21:03:12;13.80;99.90
52439;DHT22;38359;53.150;6.504;2023-05-29T21:13:38;13.40;99.90
52439;DHT22;38359;53.150;6.504;2023-05-29T21:24:05;13.60;99.90
52439;DHT22;38359;53.150;6.504;2023-05-29T21:34:36;13.40;99.90
52439;DHT22;38359;53.150;6.504;2023-05-29T21:45:02;13.50;99.90
52439;DHT22;38359;53.150;6.504;2023-05-29T21:55:28;13.20;99.90
52439;DHT22;38359;53.150;6.504;2023-05-29T22:05:54;13.30;99.90
52439;DHT22;38359;53.150;6.504;2023-05-29T22:16:20;13.10;99.90
52439;DHT22;38359;53.150;6.504;2023-05-29T22:26:46;13.10;99.90
52439;DHT22;38359;53.150;6.504;2023-05-29T22:37:12;13.20;99.90
52439;DHT22;38359;53.150;6.504;2023-05-29T22:47:38;13.10;99.90
52439;DHT22;38359;53.150;6.504;2023-05-29T22:58:04;13.10;99.90
52439;DHT22;38359;53.150;6.504;2023-05-29T23:08:29;12.90;99.90
52439;DHT22;38359;53.150;6.504;2023-05-29T23:18:55;13.00;99.90
52439;DHT22;38359;53.150;6.504;2023-05-29T23:29:21;12.80;99.90
52439;DHT22;38359;53.150;6.504;2023-05-29T23:39:47;12.80;99.90
52439;DHT22;38359;53.150;6.504;2023-05-29T23:50:13;12.90;99.90
